sensor_id;sensor_type;location;lat;lon;timestamp;temperature;humidity
14529;DHT22;7351;51.194;4.098;2023-03-23T00:00:58;17.20;99.90
14529;DHT22;7351;51.194;4.098;2023-03-23T00:03:28;17.20;99.90
14529;DHT22;7351;51.194;4.098;2023-03-23T00:05:57;17.20;99.90
14529;DHT22;7351;51.194;4.098;2023-03-23T00:08:30;17.30;99.90
14529;DHT22;7351;51.194;4.098;2023-03-23T00:10:57;17.20;99.90
14529;DHT22;7351;51.194;4.098;2023-03-23T00:13:27;17.20;99.90
14529;DHT22;7351;51.194;4.098;2023-03-23T00:15:55;17.20;99.90
14529;DHT22;7351;51.194;4.098;2023-03-23T00:18:23;17.20;99.90
14529;DHT22;7351;51.194;4.098;2023-03-23T00:20:53;17.30;99.90
14529;DHT22;7351;51.194;4.098;2023-03-23T00:23:22;17.20;99.90
14529;DHT22;7351;51.194;4.098;2023-03-23T00:25:52;17.20;99.90
14529;DHT22;7351;51.194;4.098;2023-03-23T00:28:22;17.20;99.90
14529;DHT22;7351;51.194;4.098;2023-03-23T00:30:55;17.20;99.90
14529;DHT22;7351;51.194;4.098;2023-03-23T00:33:22;17.20;99.90
14529;DHT22;7351;51.194;4.098;2023-03-23T00:35:51;17.20;99.90
14529;DHT22;7351;51.194;4.098;2023-03-23T00:38:18;17.20;99.90
14529;DHT22;7351;51.194;4.098;2023-03-23T00:40:45;17.20;99.90
14529;DHT22;7351;51.194;4.098;2023-03-23T00:43:13;17.20;99.90
14529;DHT22;7351;51.194;4.098;2023-03-23T00:45:41;17.20;99.90
14529;DHT22;7351;51.194;4.098;2023-03-23T00:48:10;17.20;99.90
14529;DHT22;7351;51.194;4.098;2023-03-23T00:50:39;17.10;99.90
14529;DHT22;7351;51.194;4.098;2023-03-23T00:53:07;17.10;99.90
14529;DHT22;7351;51.194;4.098;2023-03-23T00:55:34;17.10;99.90
14529;DHT22;7351;51.194;4.098;2023-03-23T00:58:01;17.10;99.90
14529;DHT22;7351;51.194;4.098;2023-03-23T01:00:28;17.20;99.90
14529;DHT22;7351;51.194;4.098;2023-03-23T01:02:55;17.10;99.90
14529;DHT22;7351;51.194;4.098;2023-03-23T01:05:22;17.10;99.90
14529;DHT22;7351;51.194;4.098;2023-03-23T01:07:49;17.10;99.90
14529;DHT22;7351;51.194;4.098;2023-03-23T01:10:18;17.10;99.90
14529;DHT22;7351;51.194;4.098;2023-03-23T01:12:45;17.10;99.90
14529;DHT22;7351;51.194;4.098;2023-03-23T01:15:16;17.10;99.90
14529;DHT22;7351;51.194;4.098;2023-03-23T01:17:43;17.00;99.90
14529;DHT22;7351;51.194;4.098;2023-03-23T01:20:11;17.10;99.90
14529;DHT22;7351;51.194;4.098;2023-03-23T01:22:39;17.10;99.90
14529;DHT22;7351;51.194;4.098;2023-03-23T01:25:07;17.10;99.90
14529;DHT22;7351;51.194;4.098;2023-03-23T01:27:37;17.10;99.90
14529;DHT22;7351;51.194;4.098;2023-03-23T01:30:04;17.10;99.90
14529;DHT22;7351;51.194;4.098;2023-03-23T01:32:32;17.00;99.90
14529;DHT22;7351;51.194;4.098;2023-03-23T01:34:59;17.10;99.90
14529;DHT22;7351;51.194;4.098;2023-03-23T01:37:26;17.10;99.90
14529;DHT22;7351;51.194;4.098;2023-03-23T01:39:53;17.10;99.90
14529;DHT22;7351;51.194;4.098;2023-03-23T01:42:22;17.10;99.90
14529;DHT22;7351;51.194;4.098;2023-03-23T01:45:28;17.00;99.90
14529;DHT22;7351;51.194;4.098;2023-03-23T01:48:02;17.00;99.90
14529;DHT22;7351;51.194;4.098;2023-03-23T01:50:36;17.10;99.90
14529;DHT22;7351;51.194;4.098;2023-03-23T01:53:07;17.00;99.90
14529;DHT22;7351;51.194;4.098;2023-03-23T01:55:36;17.00;99.90
14529;DHT22;7351;51.194;4.098;2023-03-23T01:58:05;17.10;99.90
14529;DHT22;7351;51.194;4.098;2023-03-23T02:00:34;17.00;99.90
14529;DHT22;7351;51.194;4.098;2023-03-23T02:03:03;17.10;99.90
14529;DHT22;7351;51.194;4.098;2023-03-23T02:05:32;17.10;99.90
14529;DHT22;7351;51.194;4.098;2023-03-23T02:08:03;17.00;99.90
14529;DHT22;7351;51.194;4.098;2023-03-23T02:10:31;17.10;99.90
14529;DHT22;7351;51.194;4.098;2023-03-23T02:12:59;17.10;99.90
14529;DHT22;7351;51.194;4.098;2023-03-23T02:15:32;17.10;99.90
14529;DHT22;7351;51.194;4.098;2023-03-23T02:18:09;17.00;99.90
14529;DHT22;7351;51.194;4.098;2023-03-23T02:21:01;17.00;99.90
14529;DHT22;7351;51.194;4.098;2023-03-23T02:23:50;17.00;99.90
14529;DHT22;7351;51.194;4.098;2023-03-23T02:26:38;17.00;99.90
14529;DHT22;7351;51.194;4.098;2023-03-23T02:29:22;17.00;99.90
14529;DHT22;7351;51.194;4.098;2023-03-23T02:32:10;17.00;99.90
14529;DHT22;7351;51.194;4.098;2023-03-23T02:34:42;17.00;99.90
14529;DHT22;7351;51.194;4.098;2023-03-23T02:37:13;17.00;99.90
14529;DHT22;7351;51.194;4.098;2023-03-23T02:39:44;17.00;99.90
14529;DHT22;7351;51.194;4.098;2023-03-23T02:42:15;17.00;99.90
14529;DHT22;7351;51.194;4.098;2023-03-23T02:44:45;16.90;99.90
14529;DHT22;7351;51.194;4.098;2023-03-23T02:47:17;17.00;99.90
14529;DHT22;7351;51.194;4.098;2023-03-23T02:49:49;17.00;99.90
14529;DHT22;7351;51.194;4.098;2023-03-23T02:52:21;17.00;99.90
14529;DHT22;7351;51.194;4.098;2023-03-23T02:54:49;17.00;99.90
14529;DHT22;7351;51.194;4.098;2023-03-23T02:57:17;16.90;99.90
14529;DHT22;7351;51.194;4.098;2023-03-23T02:59:45;17.00;99.90
14529;DHT22;7351;51.194;4.098;2023-03-23T03:02:15;16.90;99.90
14529;DHT22;7351;51.194;4.098;2023-03-23T03:04:48;16.90;99.90
14529;DHT22;7351;51.194;4.098;2023-03-23T03:07:34;17.00;99.90
14529;DHT22;7351;51.194;4.098;2023-03-23T03:10:08;16.90;99.90
14529;DHT22;7351;51.194;4.098;2023-03-23T03:12:44;16.90;99.90
14529;DHT22;7351;51.194;4.098;2023-03-23T03:15:22;16.90;99.90
14529;DHT22;7351;51.194;4.098;2023-03-23T03:17:57;16.90;99.90
14529;DHT22;7351;51.194;4.098;2023-03-23T03:20:28;16.90;99.90
14529;DHT22;7351;51.194;4.098;2023-03-23T03:22:57;16.90;99.90
14529;DHT22;7351;51.194;4.098;2023-03-23T03:25:25;16.90;99.90
14529;DHT22;7351;51.194;4.098;2023-03-23T03:27:53;16.90;99.90
14529;DHT22;7351;51.194;4.098;2023-03-23T03:30:26;16.90;99.90
14529;DHT22;7351;51.194;4.098;2023-03-23T03:32:56;16.90;99.90
14529;DHT22;7351;51.194;4.098;2023-03-23T03:35:27;16.90;99.90
14529;DHT22;7351;51.194;4.098;2023-03-23T03:37:55;16.90;99.90
14529;DHT22;7351;51.194;4.098;2023-03-23T03:40:23;16.90;99.90
14529;DHT22;7351;51.194;4.098;2023-03-23T03:42:50;16.90;99.90
14529;DHT22;7351;51.194;4.098;2023-03-23T03:45:19;16.90;99.90
14529;DHT22;7351;51.194;4.098;2023-03-23T03:47:46;16.90;99.90
14529;DHT22;7351;51.194;4.098;2023-03-23T03:50:13;16.90;99.90
14529;DHT22;7351;51.194;4.098;2023-03-23T03:52:43;16.90;99.90
14529;DHT22;7351;51.194;4.098;2023-03-23T03:55:10;16.90;99.90
14529;DHT22;7351;51.194;4.098;2023-03-23T03:57:38;16.90;99.90
14529;DHT22;7351;51.194;4.098;2023-03-23T04:00:08;16.90;99.90
14529;DHT22;7351;51.194;4.098;2023-03-23T04:02:42;16.90;99.90
14529;DHT22;7351;51.194;4.098;2023-03-23T04:05:09;16.90;99.90
14529;DHT22;7351;51.194;4.098;2023-03-23T04:07:37;16.90;99.90
14529;DHT22;7351;51.194;4.098;2023-03-23T04:10:07;16.90;99.90
14529;DHT22;7351;51.194;4.098;2023-03-23T04:12:35;16.90;99.90
14529;DHT22;7351;51.194;4.098;2023-03-23T04:15:03;16.90;99.90
14529;DHT22;7351;51.194;4.098;2023-03-23T04:17:30;16.90;99.90
14529;DHT22;7351;51.194;4.098;2023-03-23T04:19:58;16.90;99.90
14529;DHT22;7351;51.194;4.098;2023-03-23T04:22:26;16.90;99.90
14529;DHT22;7351;51.194;4.098;2023-03-23T04:24:56;17.00;99.90
14529;DHT22;7351;51.194;4.098;2023-03-23T04:27:28;16.90;99.90
14529;DHT22;7351;51.194;4.098;2023-03-23T04:29:55;17.00;99.90
14529;DHT22;7351;51.194;4.098;2023-03-23T04:32:24;16.90;99.90
14529;DHT22;7351;51.194;4.098;2023-03-23T04:34:55;16.90;99.90
14529;DHT22;7351;51.194;4.098;2023-03-23T04:37:22;16.90;99.90
14529;DHT22;7351;51.194;4.098;2023-03-23T04:39:51;16.80;99.90
14529;DHT22;7351;51.194;4.098;2023-03-23T04:42:28;16.80;99.90
14529;DHT22;7351;51.194;4.098;2023-03-23T04:44:56;16.80;99.90
14529;DHT22;7351;51.194;4.098;2023-03-23T04:47:24;16.80;99.90
14529;DHT22;7351;51.194;4.098;2023-03-23T04:49:55;16.80;99.90
14529;DHT22;7351;51.194;4.098;2023-03-23T04:52:23;16.90;99.90
14529;DHT22;7351;51.194;4.098;2023-03-23T04:54:50;16.90;99.90
14529;DHT22;7351;51.194;4.098;2023-03-23T04:57:17;17.10;99.90
14529;DHT22;7351;51.194;4.098;2023-03-23T04:59:46;17.10;99.90
14529;DHT22;7351;51.194;4.098;2023-03-23T05:02:13;17.20;99.90
14529;DHT22;7351;51.194;4.098;2023-03-23T05:04:42;17.40;99.90
14529;DHT22;7351;51.194;4.098;2023-03-23T05:07:11;17.40;99.90
14529;DHT22;7351;51.194;4.098;2023-03-23T05:09:38;17.50;99.90
14529;DHT22;7351;51.194;4.098;2023-03-23T05:12:06;17.50;99.90
14529;DHT22;7351;51.194;4.098;2023-03-23T05:14:33;17.60;99.90
14529;DHT22;7351;51.194;4.098;2023-03-23T05:17:01;17.70;99.90
14529;DHT22;7351;51.194;4.098;2023-03-23T05:19:28;17.80;99.90
14529;DHT22;7351;51.194;4.098;2023-03-23T05:21:57;17.80;99.90
14529;DHT22;7351;51.194;4.098;2023-03-23T05:24:29;17.90;99.90
14529;DHT22;7351;51.194;4.098;2023-03-23T05:26:58;17.90;99.90
14529;DHT22;7351;51.194;4.098;2023-03-23T05:29:26;18.00;99.90
14529;DHT22;7351;51.194;4.098;2023-03-23T05:31:55;18.00;99.90
14529;DHT22;7351;51.194;4.098;2023-03-23T05:34:26;18.00;99.90
14529;DHT22;7351;51.194;4.098;2023-03-23T05:36:54;18.10;99.90
14529;DHT22;7351;51.194;4.098;2023-03-23T05:39:23;18.10;99.90
14529;DHT22;7351;51.194;4.098;2023-03-23T05:41:50;18.20;99.90
14529;DHT22;7351;51.194;4.098;2023-03-23T05:44:17;18.20;99.90
14529;DHT22;7351;51.194;4.098;2023-03-23T05:46:44;18.30;99.90
14529;DHT22;7351;51.194;4.098;2023-03-23T05:49:11;18.30;99.90
14529;DHT22;7351;51.194;4.098;2023-03-23T05:51:40;18.40;99.90
14529;DHT22;7351;51.194;4.098;2023-03-23T05:54:07;18.40;99.90
14529;DHT22;7351;51.194;4.098;2023-03-23T05:56:35;18.40;99.90
14529;DHT22;7351;51.194;4.098;2023-03-23T05:59:02;18.50;99.90
14529;DHT22;7351;51.194;4.098;2023-03-23T06:01:29;18.50;99.90
14529;DHT22;7351;51.194;4.098;2023-03-23T06:03:57;18.60;99.90
14529;DHT22;7351;51.194;4.098;2023-03-23T06:06:24;18.60;99.90
14529;DHT22;7351;51.194;4.098;2023-03-23T06:08:52;18.60;99.90
14529;DHT22;7351;51.194;4.098;2023-03-23T06:11:19;18.70;99.90
14529;DHT22;7351;51.194;4.098;2023-03-23T06:13:46;18.70;99.90
14529;DHT22;7351;51.194;4.098;2023-03-23T06:16:14;18.70;99.90
14529;DHT22;7351;51.194;4.098;2023-03-23T06:18:41;18.70;99.90
14529;DHT22;7351;51.194;4.098;2023-03-23T06:21:08;18.80;99.90
14529;DHT22;7351;51.194;4.098;2023-03-23T06:23:35;18.80;99.90
14529;DHT22;7351;51.194;4.098;2023-03-23T06:26:06;18.90;99.90
14529;DHT22;7351;51.194;4.098;2023-03-23T06:28:33;18.90;99.90
14529;DHT22;7351;51.194;4.098;2023-03-23T06:31:01;18.90;99.90
14529;DHT22;7351;51.194;4.098;2023-03-23T06:33:28;18.90;99.90
14529;DHT22;7351;51.194;4.098;2023-03-23T06:35:55;19.00;99.90
14529;DHT22;7351;51.194;4.098;2023-03-23T06:38:23;19.00;99.90
14529;DHT22;7351;51.194;4.098;2023-03-23T06:40:52;19.00;99.90
14529;DHT22;7351;51.194;4.098;2023-03-23T06:43:20;19.00;99.90
14529;DHT22;7351;51.194;4.098;2023-03-23T06:45:48;19.10;99.90
14529;DHT22;7351;51.194;4.098;2023-03-23T06:48:15;19.10;99.90
14529;DHT22;7351;51.194;4.098;2023-03-23T06:50:43;19.20;99.90
14529;DHT22;7351;51.194;4.098;2023-03-23T06:53:10;19.20;99.90
14529;DHT22;7351;51.194;4.098;2023-03-23T06:55:42;19.20;99.90
14529;DHT22;7351;51.194;4.098;2023-03-23T06:58:09;19.20;99.90
14529;DHT22;7351;51.194;4.098;2023-03-23T07:00:38;19.30;99.90
14529;DHT22;7351;51.194;4.098;2023-03-23T07:03:06;19.30;99.90
14529;DHT22;7351;51.194;4.098;2023-03-23T07:05:34;19.30;99.90
14529;DHT22;7351;51.194;4.098;2023-03-23T07:08:01;19.30;99.90
14529;DHT22;7351;51.194;4.098;2023-03-23T07:10:28;19.30;99.90
14529;DHT22;7351;51.194;4.098;2023-03-23T07:12:55;19.40;99.90
14529;DHT22;7351;51.194;4.098;2023-03-23T07:15:22;19.30;99.90
14529;DHT22;7351;51.194;4.098;2023-03-23T07:17:51;19.20;99.90
14529;DHT22;7351;51.194;4.098;2023-03-23T07:20:19;19.20;99.90
14529;DHT22;7351;51.194;4.098;2023-03-23T07:22:47;19.20;99.90
14529;DHT22;7351;51.194;4.098;2023-03-23T07:25:14;19.10;99.90
14529;DHT22;7351;51.194;4.098;2023-03-23T07:27:41;19.10;99.90
14529;DHT22;7351;51.194;4.098;2023-03-23T07:30:09;18.90;99.90
14529;DHT22;7351;51.194;4.098;2023-03-23T07:32:36;18.90;99.90
14529;DHT22;7351;51.194;4.098;2023-03-23T07:35:04;18.90;99.90
14529;DHT22;7351;51.194;4.098;2023-03-23T07:37:33;18.80;99.90
14529;DHT22;7351;51.194;4.098;2023-03-23T07:40:00;18.70;99.90
14529;DHT22;7351;51.194;4.098;2023-03-23T07:42:34;18.60;99.90
14529;DHT22;7351;51.194;4.098;2023-03-23T07:45:01;18.60;99.90
14529;DHT22;7351;51.194;4.098;2023-03-23T07:47:27;18.50;99.90
14529;DHT22;7351;51.194;4.098;2023-03-23T07:49:54;18.50;99.90
14529;DHT22;7351;51.194;4.098;2023-03-23T07:52:23;18.50;99.90
14529;DHT22;7351;51.194;4.098;2023-03-23T07:54:51;18.40;99.90
14529;DHT22;7351;51.194;4.098;2023-03-23T07:57:18;18.40;99.90
14529;DHT22;7351;51.194;4.098;2023-03-23T07:59:45;18.40;99.90
14529;DHT22;7351;51.194;4.098;2023-03-23T08:02:12;18.40;99.90
14529;DHT22;7351;51.194;4.098;2023-03-23T08:04:40;18.30;99.90
14529;DHT22;7351;51.194;4.098;2023-03-23T08:07:08;18.30;99.90
14529;DHT22;7351;51.194;4.098;2023-03-23T08:09:39;18.30;99.90
14529;DHT22;7351;51.194;4.098;2023-03-23T08:12:06;18.30;99.90
14529;DHT22;7351;51.194;4.098;2023-03-23T08:14:33;18.30;99.90
14529;DHT22;7351;51.194;4.098;2023-03-23T08:17:00;18.20;99.90
14529;DHT22;7351;51.194;4.098;2023-03-23T08:19:28;18.20;99.90
14529;DHT22;7351;51.194;4.098;2023-03-23T08:21:55;18.20;99.90
14529;DHT22;7351;51.194;4.098;2023-03-23T08:24:22;18.20;99.90
14529;DHT22;7351;51.194;4.098;2023-03-23T08:26:51;18.00;99.90
14529;DHT22;7351;51.194;4.098;2023-03-23T08:29:18;18.00;99.90
14529;DHT22;7351;51.194;4.098;2023-03-23T08:31:45;18.00;99.90
14529;DHT22;7351;51.194;4.098;2023-03-23T08:34:12;18.00;99.90
14529;DHT22;7351;51.194;4.098;2023-03-23T08:36:41;18.00;99.90
14529;DHT22;7351;51.194;4.098;2023-03-23T08:39:09;18.00;99.90
14529;DHT22;7351;51.194;4.098;2023-03-23T08:41:36;18.00;99.90
14529;DHT22;7351;51.194;4.098;2023-03-23T08:44:05;18.00;99.90
14529;DHT22;7351;51.194;4.098;2023-03-23T08:46:34;18.10;99.90
14529;DHT22;7351;51.194;4.098;2023-03-23T08:49:01;18.00;99.90
14529;DHT22;7351;51.194;4.098;2023-03-23T08:51:28;18.00;99.90
14529;DHT22;7351;51.194;4.098;2023-03-23T08:53:54;18.00;99.90
14529;DHT22;7351;51.194;4.098;2023-03-23T08:56:21;18.00;99.90
14529;DHT22;7351;51.194;4.098;2023-03-23T08:58:48;18.00;99.90
14529;DHT22;7351;51.194;4.098;2023-03-23T09:01:17;18.00;99.90
14529;DHT22;7351;51.194;4.098;2023-03-23T09:03:44;18.00;99.90
14529;DHT22;7351;51.194;4.098;2023-03-23T09:06:11;18.00;99.90
14529;DHT22;7351;51.194;4.098;2023-03-23T09:08:39;18.00;99.90
14529;DHT22;7351;51.194;4.098;2023-03-23T09:11:08;18.00;99.90
14529;DHT22;7351;51.194;4.098;2023-03-23T09:13:35;18.00;99.90
14529;DHT22;7351;51.194;4.098;2023-03-23T09:16:03;18.00;99.90
14529;DHT22;7351;51.194;4.098;2023-03-23T09:18:32;18.00;99.90
14529;DHT22;7351;51.194;4.098;2023-03-23T09:21:00;18.00;99.90
14529;DHT22;7351;51.194;4.098;2023-03-23T09:23:28;18.00;99.90
14529;DHT22;7351;51.194;4.098;2023-03-23T09:25:55;18.00;99.90
14529;DHT22;7351;51.194;4.098;2023-03-23T09:28:22;18.00;99.90
14529;DHT22;7351;51.194;4.098;2023-03-23T09:30:49;18.00;99.90
14529;DHT22;7351;51.194;4.098;2023-03-23T09:33:17;18.10;99.90
14529;DHT22;7351;51.194;4.098;2023-03-23T09:35:45;18.10;99.90
14529;DHT22;7351;51.194;4.098;2023-03-23T09:38:12;18.10;99.90
14529;DHT22;7351;51.194;4.098;2023-03-23T09:40:45;18.10;99.90
14529;DHT22;7351;51.194;4.098;2023-03-23T09:43:34;18.20;99.90
14529;DHT22;7351;51.194;4.098;2023-03-23T09:46:21;18.20;99.90
14529;DHT22;7351;51.194;4.098;2023-03-23T09:48:52;18.20;99.90
14529;DHT22;7351;51.194;4.098;2023-03-23T09:51:32;18.20;99.90
14529;DHT22;7351;51.194;4.098;2023-03-23T09:54:05;18.20;99.90
14529;DHT22;7351;51.194;4.098;2023-03-23T09:56:35;18.20;99.90
14529;DHT22;7351;51.194;4.098;2023-03-23T09:59:15;18.30;99.90
14529;DHT22;7351;51.194;4.098;2023-03-23T10:01:47;18.30;99.90
14529;DHT22;7351;51.194;4.098;2023-03-23T10:04:22;18.30;99.90
14529;DHT22;7351;51.194;4.098;2023-03-23T10:06:52;18.30;99.90
14529;DHT22;7351;51.194;4.098;2023-03-23T10:09:20;18.30;99.90
14529;DHT22;7351;51.194;4.098;2023-03-23T10:11:59;18.30;99.90
14529;DHT22;7351;51.194;4.098;2023-03-23T10:14:36;18.20;99.90
14529;DHT22;7351;51.194;4.098;2023-03-23T10:17:14;18.20;99.90
14529;DHT22;7351;51.194;4.098;2023-03-23T10:19:47;18.20;99.90
14529;DHT22;7351;51.194;4.098;2023-03-23T10:22:23;18.20;99.90
14529;DHT22;7351;51.194;4.098;2023-03-23T10:27:44;18.20;99.90
14529;DHT22;7351;51.194;4.098;2023-03-23T10:30:17;18.20;99.90
14529;DHT22;7351;51.194;4.098;2023-03-23T10:32:51;18.20;99.90
14529;DHT22;7351;51.194;4.098;2023-03-23T10:35:25;18.10;99.90
14529;DHT22;7351;51.194;4.098;2023-03-23T10:37:58;18.20;99.90
14529;DHT22;7351;51.194;4.098;2023-03-23T10:40:28;18.20;99.90
14529;DHT22;7351;51.194;4.098;2023-03-23T10:42:57;18.20;99.90
14529;DHT22;7351;51.194;4.098;2023-03-23T10:45:26;18.10;99.90
14529;DHT22;7351;51.194;4.098;2023-03-23T10:47:57;18.20;99.90
14529;DHT22;7351;51.194;4.098;2023-03-23T10:50:29;18.20;99.90
14529;DHT22;7351;51.194;4.098;2023-03-23T10:52:59;18.20;99.90
14529;DHT22;7351;51.194;4.098;2023-03-23T10:55:36;18.20;99.90
14529;DHT22;7351;51.194;4.098;2023-03-23T10:58:05;18.10;99.90
14529;DHT22;7351;51.194;4.098;2023-03-23T11:00:33;18.10;99.90
14529;DHT22;7351;51.194;4.098;2023-03-23T11:03:02;18.20;99.90
14529;DHT22;7351;51.194;4.098;2023-03-23T11:05:36;18.20;99.90
14529;DHT22;7351;51.194;4.098;2023-03-23T11:08:11;18.20;99.90
14529;DHT22;7351;51.194;4.098;2023-03-23T11:10:41;18.30;99.90
14529;DHT22;7351;51.194;4.098;2023-03-23T11:13:14;18.30;99.90
14529;DHT22;7351;51.194;4.098;2023-03-23T11:15:43;18.30;99.90
14529;DHT22;7351;51.194;4.098;2023-03-23T11:18:13;18.30;99.90
14529;DHT22;7351;51.194;4.098;2023-03-23T11:20:46;18.30;99.90
14529;DHT22;7351;51.194;4.098;2023-03-23T11:23:21;18.30;99.90
14529;DHT22;7351;51.194;4.098;2023-03-23T11:26:08;18.30;99.90
14529;DHT22;7351;51.194;4.098;2023-03-23T11:28:41;18.30;99.90
14529;DHT22;7351;51.194;4.098;2023-03-23T11:31:09;18.30;99.90
14529;DHT22;7351;51.194;4.098;2023-03-23T11:33:45;18.30;99.90
14529;DHT22;7351;51.194;4.098;2023-03-23T11:36:13;18.30;99.90
14529;DHT22;7351;51.194;4.098;2023-03-23T11:38:43;18.40;99.90
14529;DHT22;7351;51.194;4.098;2023-03-23T11:41:11;18.30;99.90
14529;DHT22;7351;51.194;4.098;2023-03-23T11:43:46;18.40;99.90
14529;DHT22;7351;51.194;4.098;2023-03-23T11:46:22;18.30;99.90
14529;DHT22;7351;51.194;4.098;2023-03-23T11:48:57;18.30;99.90
14529;DHT22;7351;51.194;4.098;2023-03-23T11:51:30;18.40;99.90
14529;DHT22;7351;51.194;4.098;2023-03-23T11:54:04;18.40;99.90
14529;DHT22;7351;51.194;4.098;2023-03-23T11:56:34;18.30;99.90
14529;DHT22;7351;51.194;4.098;2023-03-23T11:59:02;18.30;99.90
14529;DHT22;7351;51.194;4.098;2023-03-23T12:01:50;18.30;99.90
14529;DHT22;7351;51.194;4.098;2023-03-23T12:07:34;18.30;99.90
14529;DHT22;7351;51.194;4.098;2023-03-23T12:10:15;18.30;99.90
14529;DHT22;7351;51.194;4.098;2023-03-23T12:12:47;18.40;99.90
14529;DHT22;7351;51.194;4.098;2023-03-23T12:15:22;18.40;99.90
14529;DHT22;7351;51.194;4.098;2023-03-23T12:17:58;18.30;99.90
14529;DHT22;7351;51.194;4.098;2023-03-23T12:20:34;18.30;99.90
14529;DHT22;7351;51.194;4.098;2023-03-23T12:23:12;18.30;99.90
14529;DHT22;7351;51.194;4.098;2023-03-23T12:25:55;18.30;99.90
14529;DHT22;7351;51.194;4.098;2023-03-23T12:28:38;18.30;99.90
14529;DHT22;7351;51.194;4.098;2023-03-23T12:31:12;18.30;99.90
14529;DHT22;7351;51.194;4.098;2023-03-23T12:33:49;18.20;99.90
14529;DHT22;7351;51.194;4.098;2023-03-23T12:36:27;18.20;99.90
14529;DHT22;7351;51.194;4.098;2023-03-23T12:41:59;18.20;99.90
14529;DHT22;7351;51.194;4.098;2023-03-23T12:44:32;18.20;99.90
14529;DHT22;7351;51.194;4.098;2023-03-23T12:47:09;18.30;99.90
14529;DHT22;7351;51.194;4.098;2023-03-23T12:49:43;18.30;99.90
14529;DHT22;7351;51.194;4.098;2023-03-23T12:52:16;18.30;99.90
14529;DHT22;7351;51.194;4.098;2023-03-23T12:54:49;18.30;99.90
14529;DHT22;7351;51.194;4.098;2023-03-23T12:57:23;18.30;99.90
14529;DHT22;7351;51.194;4.098;2023-03-23T12:59:59;18.40;99.90
14529;DHT22;7351;51.194;4.098;2023-03-23T13:02:30;18.40;99.90
14529;DHT22;7351;51.194;4.098;2023-03-23T13:05:03;18.50;99.90
14529;DHT22;7351;51.194;4.098;2023-03-23T13:07:40;18.40;99.90
14529;DHT22;7351;51.194;4.098;2023-03-23T13:10:15;18.40;99.90
14529;DHT22;7351;51.194;4.098;2023-03-23T13:12:48;18.40;99.90
14529;DHT22;7351;51.194;4.098;2023-03-23T13:15:25;18.50;99.90
14529;DHT22;7351;51.194;4.098;2023-03-23T13:18:00;18.50;99.90
14529;DHT22;7351;51.194;4.098;2023-03-23T13:20:48;18.50;99.90
14529;DHT22;7351;51.194;4.098;2023-03-23T13:23:22;18.50;99.90
14529;DHT22;7351;51.194;4.098;2023-03-23T13:25:54;18.60;99.90
14529;DHT22;7351;51.194;4.098;2023-03-23T13:28:26;18.60;99.90
14529;DHT22;7351;51.194;4.098;2023-03-23T13:31:01;18.60;99.90
14529;DHT22;7351;51.194;4.098;2023-03-23T13:33:34;18.60;99.90
14529;DHT22;7351;51.194;4.098;2023-03-23T13:36:05;18.60;99.90
14529;DHT22;7351;51.194;4.098;2023-03-23T13:38:35;18.60;99.90
14529;DHT22;7351;51.194;4.098;2023-03-23T13:41:11;18.70;99.90
14529;DHT22;7351;51.194;4.098;2023-03-23T13:43:41;18.70;99.90
14529;DHT22;7351;51.194;4.098;2023-03-23T13:46:24;18.70;99.90
14529;DHT22;7351;51.194;4.098;2023-03-23T13:49:04;18.80;99.90
14529;DHT22;7351;51.194;4.098;2023-03-23T13:51:35;18.80;99.90
14529;DHT22;7351;51.194;4.098;2023-03-23T13:54:19;18.80;99.90
14529;DHT22;7351;51.194;4.098;2023-03-23T13:56:53;18.80;99.90
14529;DHT22;7351;51.194;4.098;2023-03-23T13:59:47;18.80;99.90
14529;DHT22;7351;51.194;4.098;2023-03-23T14:02:34;18.80;99.90
14529;DHT22;7351;51.194;4.098;2023-03-23T14:07:56;18.80;99.90
14529;DHT22;7351;51.194;4.098;2023-03-23T14:10:31;18.80;99.90
14529;DHT22;7351;51.194;4.098;2023-03-23T14:13:00;18.80;99.90
14529;DHT22;7351;51.194;4.098;2023-03-23T14:15:30;18.80;99.90
14529;DHT22;7351;51.194;4.098;2023-03-23T14:18:02;18.90;99.90
14529;DHT22;7351;51.194;4.098;2023-03-23T14:20:33;18.90;99.90
14529;DHT22;7351;51.194;4.098;2023-03-23T14:23:00;18.90;99.90
14529;DHT22;7351;51.194;4.098;2023-03-23T14:25:29;18.90;99.90
14529;DHT22;7351;51.194;4.098;2023-03-23T14:27:57;18.90;99.90
14529;DHT22;7351;51.194;4.098;2023-03-23T14:30:26;18.90;99.90
14529;DHT22;7351;51.194;4.098;2023-03-23T14:33:03;19.00;99.90
14529;DHT22;7351;51.194;4.098;2023-03-23T14:35:32;19.00;99.90
14529;DHT22;7351;51.194;4.098;2023-03-23T14:38:00;19.00;99.90
14529;DHT22;7351;51.194;4.098;2023-03-23T14:40:28;19.00;99.90
14529;DHT22;7351;51.194;4.098;2023-03-23T14:42:57;19.00;99.90
14529;DHT22;7351;51.194;4.098;2023-03-23T14:45:25;19.00;99.90
14529;DHT22;7351;51.194;4.098;2023-03-23T14:47:56;19.10;99.90
14529;DHT22;7351;51.194;4.098;2023-03-23T14:50:26;19.10;99.90
14529;DHT22;7351;51.194;4.098;2023-03-23T14:52:58;19.10;99.90
14529;DHT22;7351;51.194;4.098;2023-03-23T14:55:26;19.00;99.90
14529;DHT22;7351;51.194;4.098;2023-03-23T14:58:05;19.10;99.90
14529;DHT22;7351;51.194;4.098;2023-03-23T15:00:36;19.10;99.90
14529;DHT22;7351;51.194;4.098;2023-03-23T15:03:07;19.10;99.90
14529;DHT22;7351;51.194;4.098;2023-03-23T15:05:40;19.10;99.90
14529;DHT22;7351;51.194;4.098;2023-03-23T15:08:12;19.10;99.90
14529;DHT22;7351;51.194;4.098;2023-03-23T15:10:40;19.10;99.90
14529;DHT22;7351;51.194;4.098;2023-03-23T15:13:11;19.10;99.90
14529;DHT22;7351;51.194;4.098;2023-03-23T15:15:38;19.20;99.90
14529;DHT22;7351;51.194;4.098;2023-03-23T15:18:25;19.20;99.90
14529;DHT22;7351;51.194;4.098;2023-03-23T15:20:54;19.20;99.90
14529;DHT22;7351;51.194;4.098;2023-03-23T15:23:26;19.10;99.90
14529;DHT22;7351;51.194;4.098;2023-03-23T15:25:55;19.20;99.90
14529;DHT22;7351;51.194;4.098;2023-03-23T15:28:28;19.20;99.90
14529;DHT22;7351;51.194;4.098;2023-03-23T15:30:57;19.20;99.90
14529;DHT22;7351;51.194;4.098;2023-03-23T15:33:33;19.20;99.90
14529;DHT22;7351;51.194;4.098;2023-03-23T15:36:07;19.20;99.90
14529;DHT22;7351;51.194;4.098;2023-03-23T15:38:35;19.20;99.90
14529;DHT22;7351;51.194;4.098;2023-03-23T15:41:05;19.20;99.90
14529;DHT22;7351;51.194;4.098;2023-03-23T15:43:34;19.20;99.90
14529;DHT22;7351;51.194;4.098;2023-03-23T15:46:03;19.20;99.90
14529;DHT22;7351;51.194;4.098;2023-03-23T15:48:34;19.20;99.90
14529;DHT22;7351;51.194;4.098;2023-03-23T15:51:12;19.20;99.90
14529;DHT22;7351;51.194;4.098;2023-03-23T15:53:40;19.20;99.90
14529;DHT22;7351;51.194;4.098;2023-03-23T15:56:09;19.30;99.90
14529;DHT22;7351;51.194;4.098;2023-03-23T15:58:37;19.30;99.90
14529;DHT22;7351;51.194;4.098;2023-03-23T16:01:07;19.30;99.90
14529;DHT22;7351;51.194;4.098;2023-03-23T16:03:38;19.30;99.90
14529;DHT22;7351;51.194;4.098;2023-03-23T16:06:09;19.30;99.90
14529;DHT22;7351;51.194;4.098;2023-03-23T16:08:36;19.20;99.90
14529;DHT22;7351;51.194;4.098;2023-03-23T16:11:06;19.20;99.90
14529;DHT22;7351;51.194;4.098;2023-03-23T16:13:33;19.20;99.90
14529;DHT22;7351;51.194;4.098;2023-03-23T16:16:00;19.20;99.90
14529;DHT22;7351;51.194;4.098;2023-03-23T16:18:29;19.20;99.90